Time;durP1;ratioP1;P1;durP2;ratioP2;P2;SDS_P1;SDS_P2;PMS_P1;PMS_P2;Temp;Humidity;BMP_temperature;BMP_pressure;BME280_temperature;BME280_humidity;BME280_pressure;Samples;Min_cycle;Max_cycle;Signal;HPM_P1;HPM_P2
2022/05/18 00:00:01;;;;;;;5.00;2.17;;;;;;;20.68;65.32;98580.50;4831929;28;20046;-63
2022/05/18 00:02:27;;;;;;;6.95;2.55;;;;;;;20.74;64.64;98584.94;4790635;28;20030;-64
2022/05/18 00:04:52;;;;;;;5.13;2.10;;;;;;;20.66;64.17;98584.38;4841878;28;21198;-64
2022/05/18 00:07:18;;;;;;;6.28;2.60;;;;;;;20.58;64.94;98592.50;4863735;28;20540;-66
2022/05/18 00:09:43;;;;;;;4.50;2.33;;;;;;;20.55;65.75;98593.72;4807805;28;24867;-64
2022/05/18 00:12:09;;;;;;;5.85;2.42;;;;;;;20.35;66.20;98570.03;4848527;28;20027;-65
2022/05/18 00:14:36;;;;;;;6.15;2.67;;;;;;;20.52;64.17;98588.88;4864890;28;20061;-65
2022/05/18 00:17:03;;;;;;;4.93;2.50;;;;;;;20.24;65.96;98550.38;4823562;28;20031;-60
2022/05/18 00:19:29;;;;;;;6.00;2.47;;;;;;;20.43;66.79;98590.94;4837451;28;20030;-65
2022/05/18 00:21:55;;;;;;;6.68;3.38;;;;;;;20.35;67.19;98583.22;4859569;28;20035;-64
2022/05/18 00:24:21;;;;;;;7.03;2.80;;;;;;;20.40;65.57;98593.19;4869137;28;20042;-60
2022/05/18 00:26:46;;;;;;;5.78;2.47;;;;;;;20.16;65.58;98559.34;4804210;28;20038;-61
2022/05/18 00:29:11;;;;;;;7.05;2.63;;;;;;;20.23;65.66;98582.28;4853899;28;20747;-63
2022/05/18 00:31:37;;;;;;;4.65;2.20;;;;;;;20.07;65.75;98560.59;4871851;28;21685;-63
2022/05/18 00:34:02;;;;;;;6.72;3.15;;;;;;;20.21;65.33;98589.59;4833764;28;20031;-61
2022/05/18 00:36:28;;;;;;;5.15;2.60;;;;;;;20.16;65.75;98582.28;4835735;28;20200;-63
2022/05/18 00:38:53;;;;;;;5.22;2.35;;;;;;;20.07;66.30;98584.34;4861558;28;20038;-65
2022/05/18 00:41:19;;;;;;;4.68;2.35;;;;;;;20.17;66.27;98597.94;4857254;28;20030;-63
2022/05/18 00:43:49;;;;;;;5.30;2.70;;;;;;;19.83;67.52;98571.81;4825082;28;20031;-62
2022/05/18 00:46:15;;;;;;;6.03;2.50;;;;;;;19.98;67.96;98607.47;4864202;28;22044;-64
2022/05/18 00:48:41;;;;;;;4.97;2.55;;;;;;;19.92;67.94;98599.59;4850286;28;20094;-64
2022/05/18 00:51:13;;;;;;;5.40;2.55;;;;;;;19.95;68.32;98602.63;4825271;28;20035;-62
2022/05/18 00:53:42;;;;;;;5.60;2.58;;;;;;;19.91;68.84;98596.13;4817064;28;20767;-62
2022/05/18 00:56:12;;;;;;;5.80;2.35;;;;;;;19.81;69.68;98584.41;4860149;28;20138;-64
2022/05/18 00:58:49;;;;;;;5.28;2.40;;;;;;;19.87;69.56;98588.84;4867057;28;20059;-61
2022/05/18 01:01:14;;;;;;;6.07;2.80;;;;;;;19.78;70.00;98567.94;4807566;28;20479;-61
2022/05/18 01:03:43;;;;;;;8.02;2.60;;;;;;;19.81;69.58;98581.75;4846877;28;20039;-64
2022/05/18 01:06:23;;;;;;;9.95;2.50;;;;;;;19.81;68.88;98584.41;4850653;28;20961;-64
2022/05/18 01:09:01;;;;;;;4.80;2.47;;;;;;;19.75;69.22;98588.63;4856402;28;20039;-61
2022/05/18 01:11:27;;;;;;;5.33;2.60;;;;;;;19.76;69.59;98582.34;4802437;28;20935;-61
2022/05/18 01:13:53;;;;;;;6.07;2.28;;;;;;;19.75;70.28;98599.19;4858892;28;20050;-65
2022/05/18 01:16:19;;;;;;;7.32;2.70;;;;;;;19.63;70.73;98601.63;4856280;28;20238;-63
2022/05/18 01:18:45;;;;;;;5.22;2.72;;;;;;;19.39;69.86;98535.28;4834584;28;20034;-61
2022/05/18 01:21:11;;;;;;;6.05;2.45;;;;;;;19.45;69.91;98557.41;4825152;28;20133;-62
2022/05/18 01:23:45;;;;;;;5.18;2.47;;;;;;;19.71;70.38;98595.31;4848440;28;20129;-62
2022/05/18 01:26:36;;;;;;;6.05;2.65;;;;;;;19.62;71.34;98597.34;4851596;28;20034;-63
2022/05/18 01:29:04;;;;;;;5.63;2.38;;;;;;;19.68;71.00;98595.75;4829165;28;20027;-60
2022/05/18 01:31:44;;;;;;;4.78;2.40;;;;;;;19.50;71.84;98599.00;4827974;28;20074;-64
2022/05/18 01:34:09;;;;;;;5.88;2.40;;;;;;;19.54;71.15;98590.44;4854631;28;20070;-65
2022/05/18 01:36:35;;;;;;;6.35;2.45;;;;;;;19.54;71.64;98597.56;4869677;28;20041;-64
2022/05/18 01:39:02;;;;;;;5.38;2.80;;;;;;;19.54;71.00;98592.28;4806679;28;20077;-60
2022/05/18 01:41:28;;;;;;;5.78;2.65;;;;;;;19.51;70.97;98593.50;4843635;28;20169;-65
2022/05/18 01:43:55;;;;;;;6.03;2.63;;;;;;;19.54;70.63;98600.19;4853700;28;20042;-64
2022/05/18 01:46:21;;;;;;;5.68;2.35;;;;;;;19.56;69.76;98603.44;4827630;28;20062;-60
2022/05/18 01:48:49;;;;;;;6.20;2.60;;;;;;;19.57;68.78;98597.16;4813164;28;20984;-65
2022/05/18 01:51:31;;;;;;;5.57;2.30;;;;;;;19.56;68.51;98601.59;4862338;28;21071;-65
2022/05/18 01:53:57;;;;;;;5.32;2.20;;;;;;;19.54;68.11;98606.28;4864186;28;20742;-64
2022/05/18 01:56:24;;;;;;;4.97;2.38;;;;;;;19.17;67.60;98549.69;4815295;28;20035;-61
2022/05/18 01:58:49;;;;;;;4.60;2.22;;;;;;;19.35;67.22;98573.63;4834299;28;22354;-66
2022/05/18 02:01:15;;;;;;;5.22;2.30;;;;;;;19.56;68.32;98616.63;4857311;28;20589;-63
2022/05/18 02:03:40;;;;;;;5.82;2.28;;;;;;;19.47;69.47;98610.72;4851315;28;20031;-60
2022/05/18 02:06:06;;;;;;;5.32;2.75;;;;;;;19.31;69.10;98577.69;4806184;28;21379;-63
2022/05/18 02:08:31;;;;;;;6.13;2.40;;;;;;;19.50;66.94;98612.16;4879876;28;25224;-65
2022/05/18 02:10:56;;;;;;;6.03;2.65;;;;;;;19.57;69.47;98620.91;4856440;28;20089;-64
2022/05/18 02:13:22;;;;;;;6.45;2.47;;;;;;;19.33;69.26;98582.72;4808297;28;21093;-60
2022/05/18 02:15:47;;;;;;;6.65;2.65;;;;;;;19.51;70.25;98622.53;4846636;28;20086;-64
2022/05/18 02:18:13;;;;;;;8.40;2.80;;;;;;;19.45;70.53;98611.97;4843149;28;20665;-67
2022/05/18 02:20:39;;;;;;;5.30;2.53;;;;;;;19.52;70.12;98624.13;4838691;28;20097;-59
2022/05/18 02:23:05;;;;;;;6.65;2.22;;;;;;;19.63;69.33;98621.91;4816063;28;20412;-63
2022/05/18 02:25:32;;;;;;;4.72;2.35;;;;;;;19.63;68.60;98617.44;4862409;28;20216;-64
2022/05/18 02:27:58;;;;;;;4.60;2.28;;;;;;;19.55;69.01;98615.81;4856857;28;20031;-61
2022/05/18 02:30:24;;;;;;;6.13;2.38;;;;;;;19.59;68.63;98624.13;4798254;28;20045;-61
2022/05/18 02:32:49;;;;;;;6.75;2.50;;;;;;;19.69;68.05;98623.72;4856692;28;20158;-62
2022/05/18 02:35:15;;;;;;;6.20;3.03;;;;;;;19.55;68.46;98622.94;4849184;28;20624;-64
2022/05/18 02:37:41;;;;;;;8.05;2.30;;;;;;;19.68;68.93;98633.47;4828340;28;20113;-64
2022/05/18 02:40:08;;;;;;;4.70;2.17;;;;;;;19.56;69.33;98606.88;4810927;28;20190;-65
2022/05/18 02:42:34;;;;;;;5.13;2.30;;;;;;;19.78;69.91;98635.72;4862140;28;20173;-64
2022/05/18 02:44:59;;;;;;;8.07;2.58;;;;;;;19.72;70.21;98644.44;4852769;28;20034;-60
2022/05/18 02:47:25;;;;;;;5.50;2.17;;;;;;;19.70;70.60;98635.91;4797671;28;20719;-64
2022/05/18 02:49:51;;;;;;;5.00;2.47;;;;;;;19.63;70.62;98643.81;4869584;28;21414;-60
2022/05/18 02:52:17;;;;;;;5.90;2.30;;;;;;;19.51;70.77;98611.13;4867974;28;20038;-66
2022/05/18 02:57:26;;;;;;;4.35;2.30;;;;;;;19.73;70.99;98644.25;4828562;28;20574;-64
2022/05/18 02:59:52;;;;;;;5.72;2.50;;;;;;;19.67;71.06;98645.03;4866472;28;20039;-62
2022/05/18 03:02:18;;;;;;;6.50;2.58;;;;;;;19.57;70.89;98634.09;4858297;28;20058;-64
2022/05/18 03:04:43;;;;;;;4.57;2.38;;;;;;;19.57;71.67;98637.53;4795881;28;20039;-59
2022/05/18 03:07:09;;;;;;;5.18;2.70;;;;;;;19.56;71.63;98648.28;4853320;28;20124;-63
2022/05/18 03:09:35;;;;;;;5.18;2.58;;;;;;;19.31;72.89;98643.59;4855878;28;20509;-64
2022/05/18 03:12:02;;;;;;;5.32;2.33;;;;;;;19.34;73.25;98648.44;4822403;28;20062;-61
2022/05/18 03:14:28;;;;;;;5.35;2.30;;;;;;;19.02;72.86;98618.38;4822017;28;20483;-66
2022/05/18 03:16:53;;;;;;;4.70;2.42;;;;;;;19.16;73.38;98656.09;4858235;28;20047;-63
2022/05/18 03:19:19;;;;;;;4.75;2.30;;;;;;;19.10;74.66;98657.72;4842659;28;20023;-61
2022/05/18 03:24:28;;;;;;;5.03;2.40;;;;;;;19.14;75.39;98664.22;4833667;28;20042;-67
2022/05/18 03:26:54;;;;;;;4.82;2.60;;;;;;;19.04;76.33;98662.97;4847958;28;20667;-63
2022/05/18 03:29:19;;;;;;;4.57;2.20;;;;;;;18.88;76.49;98629.91;4839010;28;20842;-58
2022/05/18 03:31:48;;;;;;;5.35;2.20;;;;;;;19.16;76.08;98672.72;4795399;28;21858;-63
2022/05/18 03:34:14;;;;;;;6.88;2.83;;;;;;;19.23;75.31;98664.84;4854436;28;20653;-64
2022/05/18 03:36:39;;;;;;;5.05;2.50;;;;;;;19.21;75.99;98677.41;4864789;28;20530;-66
2022/05/18 03:39:06;;;;;;;6.55;2.67;;;;;;;19.19;76.18;98685.50;4800140;28;20120;-66
2022/05/18 03:41:34;;;;;;;5.40;2.40;;;;;;;19.14;75.90;98690.56;4854788;28;20046;-65
2022/05/18 03:44:00;;;;;;;5.97;3.55;;;;;;;19.19;75.49;98697.91;4865017;28;20294;-65
2022/05/18 03:46:26;;;;;;;5.20;2.50;;;;;;;19.24;76.26;98690.22;4825049;28;21710;-64
2022/05/18 03:48:52;;;;;;;5.90;2.50;;;;;;;19.25;75.78;98697.09;4819775;28;20042;-65
2022/05/18 03:51:17;;;;;;;4.95;2.30;;;;;;;19.18;75.79;98707.63;4864703;28;20050;-63
2022/05/18 03:53:43;;;;;;;8.75;2.78;;;;;;;19.02;75.69;98715.88;4866210;28;20086;-60
2022/05/18 03:56:09;;;;;;;5.68;2.38;;;;;;;19.14;72.65;98716.91;4808658;28;20828;-59
2022/05/18 03:58:35;;;;;;;5.13;2.40;;;;;;;19.05;72.35;98717.28;4865503;28;20146;-64
2022/05/18 04:01:02;;;;;;;6.90;3.38;;;;;;;18.99;71.93;98701.25;4865294;28;20872;-62
2022/05/18 04:03:29;;;;;;;4.72;1.98;;;;;;;19.14;71.53;98724.81;4832122;28;20023;-62
2022/05/18 04:05:55;;;;;;;5.80;2.60;;;;;;;18.99;72.05;98730.25;4832639;28;20043;-64
2022/05/18 04:08:21;;;;;;;5.18;2.20;;;;;;;19.00;72.48;98731.88;4861311;28;20478;-64
2022/05/18 04:10:47;;;;;;;5.40;2.10;;;;;;;18.98;72.09;98735.72;4842953;28;20089;-60
2022/05/18 04:13:14;;;;;;;5.13;2.30;;;;;;;18.86;72.04;98740.72;4820452;28;20481;-65
2022/05/18 04:15:41;;;;;;;8.30;2.80;;;;;;;18.74;72.91;98747.50;4864679;28;20470;-65
2022/05/18 04:18:06;;;;;;;5.63;2.75;;;;;;;18.52;72.91;98723.06;4845289;28;20054;-64
2022/05/18 04:20:32;;;;;;;5.07;2.40;;;;;;;18.46;72.79;98727.28;4835065;28;20478;-60
2022/05/18 04:22:57;;;;;;;4.32;2.13;;;;;;;18.70;72.49;98756.81;4836847;28;20034;-64
2022/05/18 04:25:25;;;;;;;6.28;2.75;;;;;;;18.74;72.29;98760.69;4866068;28;20050;-63
2022/05/18 04:27:52;;;;;;;6.20;2.72;;;;;;;18.57;72.36;98736.47;4842435;28;20019;-60
2022/05/18 04:30:19;;;;;;;5.43;2.40;;;;;;;18.85;72.21;98762.00;4793193;28;20518;-63
2022/05/18 04:32:45;;;;;;;5.60;2.55;;;;;;;18.86;71.51;98761.81;4851710;28;20110;-64
2022/05/18 04:35:13;;;;;;;5.82;2.35;;;;;;;18.87;70.93;98759.97;4862075;28;20042;-63
2022/05/18 04:37:38;;;;;;;5.03;2.28;;;;;;;18.82;72.33;98776.38;4808419;28;20046;-61
2022/05/18 04:40:05;;;;;;;5.78;2.75;;;;;;;18.80;72.03;98771.28;4845952;28;20034;-61
2022/05/18 04:42:31;;;;;;;6.22;2.55;;;;;;;18.75;72.56;98776.28;4861263;28;20073;-64
2022/05/18 04:44:56;;;;;;;5.75;2.30;;;;;;;18.49;73.31;98774.31;4843530;28;20035;-63
2022/05/18 04:47:23;;;;;;;8.95;2.50;;;;;;;18.50;73.53;98785.66;4826828;28;20037;-64
2022/05/18 04:49:50;;;;;;;5.78;2.30;;;;;;;18.54;73.72;98779.78;4867441;28;20130;-64
2022/05/18 04:52:18;;;;;;;4.80;2.50;;;;;;;18.62;73.13;98792.03;4861422;28;20019;-66
2022/05/18 04:54:43;;;;;;;6.22;2.63;;;;;;;18.65;72.93;98788.97;4801071;28;21172;-60
2022/05/18 04:57:09;;;;;;;5.75;2.55;;;;;;;18.42;72.68;98752.38;4840063;28;21551;-64
2022/05/18 04:59:34;;;;;;;8.35;3.60;;;;;;;18.62;73.04;98787.56;4869769;28;20063;-62
2022/05/18 05:02:00;;;;;;;9.75;2.80;;;;;;;18.59;72.80;98790.56;4845093;28;20041;-61
2022/05/18 05:04:25;;;;;;;6.95;2.90;;;;;;;18.57;73.86;98802.31;4822734;28;21584;-64
2022/05/18 05:06:50;;;;;;;6.70;2.78;;;;;;;18.62;74.03;98811.25;4832510;28;20764;-59
2022/05/18 05:09:16;;;;;;;5.47;2.40;;;;;;;18.59;74.13;98813.47;4824269;28;20082;-64
2022/05/18 05:11:42;;;;;;;6.88;2.90;;;;;;;18.39;74.35;98808.03;4868182;28;20117;-62
2022/05/18 05:14:08;;;;;;;5.78;2.95;;;;;;;18.36;73.88;98811.88;4855749;28;20030;-62
2022/05/18 05:16:33;;;;;;;8.15;2.80;;;;;;;18.47;73.71;98825.50;4814474;28;20046;-64
2022/05/18 05:18:59;;;;;;;5.93;2.65;;;;;;;18.49;72.86;98813.81;4860034;28;20047;-61
2022/05/18 05:21:25;;;;;;;6.53;2.75;;;;;;;18.42;72.47;98790.03;4876112;28;20445;-62
2022/05/18 05:23:50;;;;;;;6.72;2.88;;;;;;;18.41;72.15;98779.72;4843032;28;20102;-60
2022/05/18 05:26:16;;;;;;;6.68;2.72;;;;;;;18.68;71.71;98822.03;4841970;28;20061;-64
2022/05/18 05:28:41;;;;;;;5.93;3.15;;;;;;;18.70;72.11;98830.56;4864483;28;20462;-64
2022/05/18 05:31:09;;;;;;;8.05;3.58;;;;;;;18.55;72.24;98813.03;4854581;28;20035;-62
2022/05/18 05:33:36;;;;;;;8.80;3.30;;;;;;;18.71;71.86;98838.28;4812290;28;20158;-59
2022/05/18 05:36:02;;;;;;;13.30;3.17;;;;;;;18.71;72.57;98842.69;4843390;28;20073;-64
2022/05/18 05:38:28;;;;;;;10.20;3.30;;;;;;;18.51;72.07;98816.22;4846726;28;20078;-63
2022/05/18 05:40:55;;;;;;;8.18;3.17;;;;;;;18.63;72.54;98851.56;4791232;28;21387;-59
2022/05/18 05:43:20;;;;;;;7.32;2.90;;;;;;;18.60;73.23;98857.22;4839449;28;20042;-64
2022/05/18 05:46:00;;;;;;;6.28;3.13;;;;;;;18.31;73.21;98798.47;4854921;28;20419;-63
2022/05/18 05:48:27;;;;;;;6.15;2.70;;;;;;;18.37;73.31;98808.22;4843888;28;20039;-61
2022/05/18 05:50:52;;;;;;;8.65;2.60;;;;;;;18.63;73.87;98851.56;4771384;28;20767;-64
2022/05/18 05:53:18;;;;;;;6.18;3.08;;;;;;;18.44;73.76;98851.22;4847399;28;20721;-67
2022/05/18 05:55:44;;;;;;;7.68;3.22;;;;;;;18.26;73.76;98816.63;4844182;28;20487;-62
2022/05/18 05:58:09;;;;;;;11.50;3.38;;;;;;;18.54;74.49;98861.41;4804022;28;20540;-60
2022/05/18 06:00:36;;;;;;;6.93;3.15;;;;;;;18.62;74.19;98866.56;4825314;28;20852;-64
2022/05/18 06:03:03;;;;;;;6.53;2.92;;;;;;;18.64;74.40;98866.38;4842441;28;20434;-66
2022/05/18 06:05:29;;;;;;;6.45;2.80;;;;;;;18.64;74.89;98863.75;4850029;28;20397;-62
2022/05/18 06:07:54;;;;;;;7.05;2.97;;;;;;;18.62;75.20;98863.94;4795549;28;20138;-65
2022/05/18 06:10:21;;;;;;;11.85;3.65;;;;;;;18.48;74.63;98835.84;4841045;28;20839;-65
2022/05/18 06:12:46;;;;;;;7.28;2.88;;;;;;;18.64;74.93;98876.91;4774649;28;20346;-66
2022/05/18 06:15:12;;;;;;;6.22;3.22;;;;;;;18.53;75.39;98870.34;4787864;28;20038;-65
2022/05/18 06:17:38;;;;;;;7.78;3.25;;;;;;;18.49;75.97;98877.00;4776685;28;20039;-67
2022/05/18 06:20:04;;;;;;;6.70;3.22;;;;;;;18.60;75.44;98879.09;4793228;28;20031;-65
2022/05/18 06:22:30;;;;;;;10.82;4.10;;;;;;;18.65;75.39;98881.16;4814215;28;20050;-65
2022/05/18 06:24:56;;;;;;;7.38;4.00;;;;;;;18.73;75.87;98885.50;4813133;28;21077;-64
2022/05/18 06:27:22;;;;;;;9.05;3.30;;;;;;;18.44;75.36;98837.25;4817820;28;20038;-63
2022/05/18 06:29:50;;;;;;;8.63;3.80;;;;;;;18.76;75.35;98879.81;4817751;28;20380;-63
2022/05/18 06:32:17;;;;;;;11.20;3.80;;;;;;;18.67;75.28;98867.81;4797895;28;20774;-62
2022/05/18 06:34:44;;;;;;;7.60;4.25;;;;;;;18.62;75.69;98887.63;4823686;28;20027;-64
2022/05/18 06:37:13;;;;;;;7.60;3.38;;;;;;;18.54;76.15;98885.13;4820550;28;20689;-63
2022/05/18 06:39:39;;;;;;;8.57;3.92;;;;;;;18.63;75.25;98891.06;4821259;28;20642;-63
2022/05/18 06:42:05;;;;;;;11.48;3.35;;;;;;;18.77;75.38;98890.19;4804895;28;20074;-63
2022/05/18 06:44:30;;;;;;;8.80;3.38;;;;;;;18.81;75.52;98890.63;4821879;28;20035;-64
2022/05/18 06:47:00;;;;;;;10.90;3.63;;;;;;;18.88;75.47;98899.41;4817372;28;20570;-62
2022/05/18 06:49:26;;;;;;;;;;;;;;;18.85;75.18;98904.25;4802264;28;20049;-63
2022/05/18 06:51:52;;;;;;;6.63;3.20;;;;;;;18.89;75.96;98898.41;4821816;28;21867;-65
2022/05/18 06:54:17;;;;;;;8.32;3.92;;;;;;;18.64;75.56;98864.53;4813434;28;20544;-64
2022/05/18 06:56:43;;;;;;;11.10;3.83;;;;;;;18.87;75.44;98900.41;4822823;28;21015;-64
2022/05/18 06:59:10;;;;;;;9.98;3.60;;;;;;;18.97;75.37;98905.34;4819517;28;20922;-67
2022/05/18 07:01:36;;;;;;;12.30;4.22;;;;;;;19.01;75.51;98911.88;4822805;28;25068;-64
2022/05/18 07:04:03;;;;;;;7.72;3.92;;;;;;;18.93;75.08;98886.47;4848641;28;21338;-65
2022/05/18 07:06:32;;;;;;;11.52;4.75;;;;;;;19.08;75.10;98906.66;4854291;28;20085;-59
2022/05/18 07:08:58;;;;;;;9.45;4.15;;;;;;;18.99;75.34;98893.59;4802351;28;20053;-60
2022/05/18 07:11:23;;;;;;;9.00;3.90;;;;;;;19.04;76.45;98900.94;4852370;28;20046;-64
2022/05/18 07:13:51;;;;;;;9.27;3.95;;;;;;;19.10;76.04;98909.91;4870348;28;20473;-64
2022/05/18 07:16:22;;;;;;;9.40;3.67;;;;;;;19.08;76.13;98910.09;4842641;28;20525;-58
2022/05/18 07:18:48;;;;;;;7.82;4.28;;;;;;;19.07;76.95;98908.44;4816182;28;20180;-65
2022/05/18 07:21:14;;;;;;;7.28;3.58;;;;;;;19.05;77.37;98909.66;4850201;28;20077;-64
2022/05/18 07:23:39;;;;;;;12.88;4.28;;;;;;;18.91;75.11;98885.88;4874434;28;20046;-61
2022/05/18 07:26:05;;;;;;;11.20;3.88;;;;;;;18.90;74.91;98878.16;4813875;28;20039;-59
2022/05/18 07:28:31;;;;;;;11.60;4.63;;;;;;;19.08;75.27;98915.38;4858469;28;20077;-64
2022/05/18 07:30:57;;;;;;;10.77;4.15;;;;;;;19.09;75.74;98921.44;4866923;28;20591;-63
2022/05/18 07:33:24;;;;;;;8.55;3.70;;;;;;;19.00;75.57;98916.31;4823056;28;20742;-64
2022/05/18 07:35:50;;;;;;;7.75;3.72;;;;;;;19.00;75.19;98907.59;4842935;28;20854;-63
2022/05/18 07:38:18;;;;;;;9.60;3.92;;;;;;;19.23;76.12;98919.72;4865680;28;20049;-63
2022/05/18 07:40:44;;;;;;;12.63;4.05;;;;;;;19.32;76.43;98915.94;4864612;28;20029;-61
2022/05/18 07:43:10;;;;;;;11.07;3.60;;;;;;;19.65;75.34;98888.91;4802297;28;20034;-67
2022/05/18 07:45:35;;;;;;;10.98;3.72;;;;;;;20.49;71.98;98924.69;4871494;28;20662;-62
2022/05/18 07:48:01;;;;;;;6.68;2.83;;;;;;;20.81;67.06;98909.09;4865089;28;20026;-62
2022/05/18 07:50:26;;;;;;;6.30;2.42;;;;;;;21.02;64.67;98908.06;4824358;28;20034;-61
2022/05/18 07:52:58;;;;;;;6.63;2.67;;;;;;;21.49;61.85;98919.41;4850089;28;20195;-66
2022/05/18 07:55:25;;;;;;;5.35;2.80;;;;;;;21.74;61.91;98916.06;4844416;28;20112;-66
2022/05/18 07:57:51;;;;;;;5.57;2.40;;;;;;;22.10;59.87;98923.44;4843847;28;20039;-63
2022/05/18 08:00:17;;;;;;;7.28;2.42;;;;;;;22.27;58.78;98913.19;4801434;28;20978;-66
2022/05/18 08:02:43;;;;;;;6.18;2.38;;;;;;;22.60;58.67;98928.06;4860849;28;20138;-66
2022/05/18 08:05:09;;;;;;;5.55;2.58;;;;;;;22.81;56.29;98918.91;4861042;28;20707;-64
2022/05/18 08:07:34;;;;;;;6.70;2.35;;;;;;;23.02;54.26;98923.81;4806137;28;20049;-62
2022/05/18 08:15:43;;;;;;;6.57;3.00;;;;;;;23.35;52.24;98920.06;4880039;28;20042;-65
2022/05/18 08:18:09;;;;;;;6.30;2.30;;;;;;;23.40;51.82;98927.34;4812637;28;20584;-60
2022/05/18 08:20:38;;;;;;;8.13;2.60;;;;;;;23.58;50.06;98924.72;4838686;28;20156;-65
2022/05/18 08:23:04;;;;;;;5.57;2.80;;;;;;;23.53;53.78;98929.06;4852841;28;20425;-63
2022/05/18 08:25:29;;;;;;;5.85;2.90;;;;;;;23.85;53.60;98927.09;4831212;28;20038;-60
2022/05/18 08:27:55;;;;;;;7.10;2.72;;;;;;;23.71;54.90;98925.59;4850926;28;20042;-64
2022/05/18 08:30:21;;;;;;;4.80;2.47;;;;;;;23.76;53.43;98893.88;4850959;28;20150;-64
2022/05/18 08:32:46;;;;;;;7.15;2.45;;;;;;;23.77;56.64;98925.50;4868000;28;20117;-63
2022/05/18 08:35:14;;;;;;;5.22;2.45;;;;;;;23.74;56.37;98898.59;4829328;28;20027;-60
2022/05/18 08:37:46;;;;;;;7.32;3.17;;;;;;;23.82;56.87;98918.75;4846105;28;20050;-65
2022/05/18 08:40:38;;;;;;;6.20;2.80;;;;;;;23.63;57.80;98886.88;4865403;28;20845;-61
2022/05/18 08:43:22;;;;;;;4.72;2.50;;;;;;;24.15;56.19;98915.69;4874057;28;20513;-59
2022/05/18 08:45:48;;;;;;;5.15;2.40;;;;;;;24.01;57.04;98914.25;4830357;28;20120;-61
2022/05/18 08:48:28;;;;;;;4.82;2.42;;;;;;;25.00;56.34;98919.09;4847177;28;20612;-63
2022/05/18 08:51:08;;;;;;;6.28;2.60;;;;;;;25.10;54.34;98911.34;4875762;28;20034;-66
2022/05/18 08:53:46;;;;;;;5.18;2.97;;;;;;;25.46;52.93;98915.63;4890825;28;20070;-64
2022/05/18 08:56:17;;;;;;;6.85;2.72;;;;;;;25.92;53.63;98921.06;4821772;28;20030;-62
2022/05/18 08:58:48;;;;;;;7.25;4.00;;;;;;;25.88;51.25;98919.91;4825611;28;24801;-65
2022/05/18 09:01:25;;;;;;;6.95;3.72;;;;;;;26.59;49.95;98911.59;4873948;28;20072;-63
2022/05/18 09:03:56;;;;;;;8.40;4.22;;;;;;;27.05;47.19;98912.31;4874851;28;20106;-64
2022/05/18 09:06:36;;;;;;;7.68;4.18;;;;;;;27.21;45.46;98889.31;4818086;28;20965;-63
2022/05/18 09:11:55;;;;;;;11.50;5.43;;;;;;;27.69;43.30;98911.03;4860587;28;20062;-64
2022/05/18 09:14:23;;;;;;;12.02;4.88;;;;;;;27.64;42.97;98906.44;4845642;28;20039;-60
2022/05/18 09:17:12;;;;;;;8.45;3.95;;;;;;;27.81;43.04;98883.13;4813553;28;21913;-63
2022/05/18 09:19:59;;;;;;;10.55;4.30;;;;;;;27.84;42.25;98905.03;4847556;28;20141;-64
2022/05/18 09:23:11;;;;;;;10.95;4.70;;;;;;;27.84;43.00;98889.00;4868455;28;20038;-63
2022/05/18 09:25:46;;;;;;;8.43;4.53;;;;;;;27.64;42.70;98882.41;4868292;28;20041;-65
2022/05/18 09:28:20;;;;;;;17.17;5.35;;;;;;;27.65;43.30;98912.59;4852869;28;20521;-61
2022/05/18 09:31:23;;;;;;;12.75;4.63;;;;;;;27.74;43.06;98919.91;4792511;28;20789;-63
2022/05/18 09:34:33;;;;;;;10.52;4.43;;;;;;;27.93;42.95;98919.63;4815136;28;20031;-64
2022/05/18 09:37:14;;;;;;;9.15;4.75;;;;;;;27.86;43.47;98916.31;4820874;28;20038;-64
2022/05/18 09:39:44;;;;;;;10.45;4.72;;;;;;;27.49;44.08;98914.25;4877491;28;20031;-64
2022/05/18 09:42:20;;;;;;;9.00;4.68;;;;;;;27.00;45.66;98901.59;4857525;28;20035;-66
2022/05/18 09:45:06;;;;;;;7.10;4.40;;;;;;;26.71;46.71;98916.88;4811166;28;20045;-63
2022/05/18 09:47:37;;;;;;;9.77;4.60;;;;;;;26.32;48.62;98909.53;4813086;28;20034;-63
2022/05/18 09:50:06;;;;;;;7.75;4.35;;;;;;;25.89;48.42;98882.38;4870752;28;20200;-64
2022/05/18 09:52:34;;;;;;;13.55;4.97;;;;;;;25.99;48.97;98905.75;4868602;28;20035;-65
2022/05/18 09:55:01;;;;;;;8.40;4.95;;;;;;;25.93;49.11;98909.38;4828969;28;20054;-62
2022/05/18 09:57:40;;;;;;;8.63;5.10;;;;;;;25.78;49.69;98917.06;4826603;28;21025;-66
2022/05/18 10:00:18;;;;;;;9.65;4.55;;;;;;;25.76;49.58;98916.47;4836368;28;20699;-64
2022/05/18 10:08:34;;;;;;;7.80;4.68;;;;;;;25.76;49.06;98919.94;4792694;28;20042;-63
2022/05/18 10:11:04;;;;;;;11.63;5.68;;;;;;;25.94;46.38;98908.34;4822463;28;20053;-63
2022/05/18 10:13:32;;;;;;;10.93;4.85;;;;;;;25.82;47.84;98921.66;4859999;28;20034;-65
2022/05/18 10:16:04;;;;;;;10.98;5.53;;;;;;;25.83;47.95;98925.13;4839697;28;20035;-60
2022/05/18 10:18:41;;;;;;;10.82;5.03;;;;;;;25.63;48.20;98882.94;4809896;28;20121;-63
2022/05/18 10:21:16;;;;;;;11.45;5.85;;;;;;;25.84;49.19;98911.56;4863347;28;20046;-67
2022/05/18 10:23:51;;;;;;;12.75;6.35;;;;;;;25.95;49.13;98917.13;4849128;28;20751;-65
2022/05/18 10:26:35;;;;;;;10.07;5.93;;;;;;;25.90;49.22;98921.28;4859604;28;20062;-61
2022/05/18 10:29:20;;;;;;;9.32;6.13;;;;;;;25.77;48.86;98916.22;4818392;28;20129;-62
2022/05/18 10:32:09;;;;;;;9.85;5.90;;;;;;;25.74;48.41;98907.91;4828048;28;20039;-61
2022/05/18 10:34:46;;;;;;;10.68;6.25;;;;;;;25.84;48.76;98908.91;4853677;28;20049;-63
2022/05/18 10:37:14;;;;;;;11.57;6.85;;;;;;;25.91;48.64;98914.09;4860930;28;20031;-63
2022/05/18 10:39:44;;;;;;;8.52;6.25;;;;;;;25.86;49.00;98914.78;4831288;28;20066;-62
2022/05/18 10:42:25;;;;;;;10.15;6.75;;;;;;;25.75;48.37;98888.22;4806630;28;20275;-67
2022/05/18 10:44:53;;;;;;;9.13;5.72;;;;;;;25.96;48.14;98906.25;4846642;28;25113;-63
2022/05/18 10:47:36;;;;;;;10.85;5.80;;;;;;;26.02;48.10;98902.63;4851805;28;20054;-63
2022/05/18 10:50:32;;;;;;;9.45;5.65;;;;;;;26.22;46.89;98912.84;4798634;28;20185;-66
2022/05/18 10:53:19;;;;;;;9.57;5.93;;;;;;;26.08;47.25;98901.69;4872232;28;20241;-64
2022/05/18 10:55:57;;;;;;;9.10;5.70;;;;;;;26.04;46.59;98911.16;4861213;28;20121;-61
2022/05/18 10:58:28;;;;;;;9.45;5.82;;;;;;;26.08;45.92;98883.03;4818658;28;20086;-65
2022/05/18 11:00:58;;;;;;;10.05;5.60;;;;;;;26.04;47.93;98891.72;4832776;28;20168;-63
2022/05/18 11:03:30;;;;;;;8.02;5.13;;;;;;;26.04;46.49;98886.41;4858103;28;20833;-62
2022/05/18 11:06:09;;;;;;;9.77;5.57;;;;;;;26.01;46.25;98910.84;4794976;28;20047;-66
2022/05/18 11:08:35;;;;;;;;;;;;;;;26.13;46.64;98900.94;4799952;28;20035;-64
2022/05/18 11:11:12;;;;;;;8.18;5.80;;;;;;;26.17;46.83;98903.94;4857980;28;20009;-64
2022/05/18 11:13:56;;;;;;;9.60;5.28;;;;;;;26.21;46.65;98900.56;4886619;28;20678;-62
2022/05/18 11:16:52;;;;;;;9.38;5.80;;;;;;;26.20;46.68;98909.59;4831928;28;20057;-61
2022/05/18 11:19:41;;;;;;;8.98;5.50;;;;;;;26.29;46.76;98904.69;4775241;28;20045;-65
2022/05/18 11:22:10;;;;;;;9.90;4.90;;;;;;;26.28;46.46;98908.41;4808182;28;20109;-64
2022/05/18 11:25:02;;;;;;;11.10;5.23;;;;;;;26.33;46.08;98892.50;4850935;28;21015;-66
2022/05/18 11:27:33;;;;;;;9.15;4.95;;;;;;;26.17;46.01;98887.97;4855901;28;20377;-64
2022/05/18 11:30:09;;;;;;;7.43;5.07;;;;;;;26.27;45.81;98880.16;4822150;28;20109;-62
2022/05/18 11:32:48;;;;;;;7.78;5.15;;;;;;;26.46;45.81;98907.38;4816763;28;20412;-63
2022/05/18 11:35:40;;;;;;;6.93;4.50;;;;;;;26.45;46.13;98898.56;4858452;28;20888;-62
2022/05/18 11:38:18;;;;;;;10.02;5.13;;;;;;;26.46;45.05;98899.38;4850871;28;20097;-64
2022/05/18 11:40:59;;;;;;;7.38;5.32;;;;;;;26.60;46.26;98891.88;4850200;28;20042;-62
2022/05/18 11:43:37;;;;;;;8.98;5.72;;;;;;;26.44;46.05;98861.50;4800404;28;20538;-60
2022/05/18 11:46:21;;;;;;;9.02;5.45;;;;;;;26.75;46.44;98902.00;4850547;28;20031;-62
2022/05/18 11:49:10;;;;;;;9.93;5.10;;;;;;;26.36;46.56;98845.88;4877839;28;20027;-62
2022/05/18 11:51:41;;;;;;;8.32;5.03;;;;;;;26.71;46.82;98904.34;4870526;28;20046;-63
2022/05/18 11:54:37;;;;;;;8.35;5.10;;;;;;;26.75;45.69;98894.81;4832661;28;20739;-61
2022/05/18 11:57:03;;;;;;;9.00;5.32;;;;;;;26.71;46.83;98904.34;4812802;28;20612;-60
2022/05/18 11:59:52;;;;;;;8.83;5.20;;;;;;;26.76;45.44;98896.44;4855402;28;20157;-64
2022/05/18 12:02:36;;;;;;;8.50;5.43;;;;;;;26.76;45.65;98895.59;4856068;28;20299;-65